createdAt,value
2023-04-18T00:02:29.694Z,20.73
2023-04-18T00:07:35.751Z,30.13
2023-04-18T00:12:39.944Z,19.95
2023-04-18T00:17:44.288Z,31.25
2023-04-18T00:22:50.143Z,16.98
2023-04-18T00:27:54.263Z,12.98
2023-04-18T00:32:58.794Z,43.20
2023-04-18T00:38:04.897Z,20.55
2023-04-18T00:43:09.541Z,20.52
2023-04-18T00:48:13.907Z,17.55
2023-04-18T00:53:19.453Z,24.20
2023-04-18T00:58:24.874Z,39.38
2023-04-18T01:03:29.420Z,17.17
2023-04-18T01:08:35.913Z,10.23
2023-04-18T01:13:40.196Z,14.95
2023-04-18T01:18:45.081Z,14.98
2023-04-18T01:23:54.290Z,37.80
2023-04-18T01:28:59.876Z,24.58
2023-04-18T01:34:04.272Z,12.15
2023-04-18T01:39:09.613Z,21.75
2023-04-18T01:44:15.340Z,41.78
2023-04-18T01:49:19.745Z,51.78
2023-04-18T01:54:26.334Z,22.85
2023-04-18T01:59:32.494Z,11.43
2023-04-18T02:04:39.197Z,24.67
2023-04-18T02:09:43.632Z,25.52
2023-04-18T02:14:54.200Z,9.57
2023-04-18T02:19:58.686Z,15.55
2023-04-18T02:25:03.184Z,16.02
2023-04-18T02:30:10.053Z,37.17
2023-04-18T02:35:14.546Z,80.85
2023-04-18T02:40:19.006Z,23.48
2023-04-18T02:45:25.054Z,10.32
2023-04-18T02:50:30.268Z,14.75
2023-04-18T02:55:35.310Z,9.65
2023-04-18T03:00:41.254Z,29.35
2023-04-18T03:06:00.677Z,9.70
2023-04-18T03:11:07.257Z,7.80
2023-04-18T03:16:13.799Z,12.60
2023-04-18T03:21:20.137Z,36.75
2023-04-18T03:26:26.647Z,24.27
2023-04-18T03:31:34.817Z,23.13
2023-04-18T03:36:39.105Z,15.85
2023-04-18T03:41:43.572Z,17.58
2023-04-18T03:46:49.602Z,34.85
2023-04-18T03:51:54.652Z,27.40
2023-04-18T03:56:59.721Z,21.65
2023-04-18T04:02:06.620Z,22.75
2023-04-18T04:07:11.205Z,19.65
2023-04-18T04:12:15.636Z,29.05
2023-04-18T04:17:22.348Z,22.92
2023-04-18T04:22:27.678Z,22.05
2023-04-18T04:27:34.264Z,27.33
2023-04-18T04:32:40.880Z,23.83
2023-04-18T04:37:45.424Z,24.88
2023-04-18T04:42:59.479Z,25.33
2023-04-18T04:48:11.592Z,32.03
2023-04-18T04:53:16.154Z,29.85
2023-04-18T04:58:20.933Z,27.00
2023-04-18T05:03:45.333Z,27.27
2023-04-18T05:08:49.830Z,31.25
2023-04-18T05:13:54.129Z,25.17
2023-04-18T05:18:59.925Z,24.08
2023-04-18T05:24:04.073Z,29.42
2023-04-18T05:29:08.441Z,22.92
2023-04-18T05:34:14.794Z,28.65
2023-04-18T05:39:19.245Z,25.92
2023-04-18T05:44:24.382Z,28.20
2023-04-18T05:49:30.044Z,25.33
2023-04-18T05:54:34.630Z,21.83
2023-04-18T05:59:39.274Z,24.55
2023-04-18T06:04:45.350Z,28.48
2023-04-18T06:09:50.026Z,34.85
2023-04-18T06:14:54.565Z,23.70
2023-04-18T06:20:00.325Z,27.20
2023-04-18T06:25:04.878Z,31.98
2023-04-18T06:30:10.265Z,21.58
2023-04-18T06:35:15.885Z,24.65
2023-04-18T06:40:20.236Z,50.65
2023-04-18T06:45:24.907Z,216.75
2023-04-18T06:50:30.572Z,40.97
2023-04-18T06:55:35.601Z,68.80
2023-04-18T07:00:40.026Z,48.20
2023-04-18T07:05:46.518Z,120.53
2023-04-18T07:10:50.726Z,65.68
2023-04-18T07:15:54.854Z,71.95
2023-04-18T07:21:00.836Z,64.88
2023-04-18T07:26:05.928Z,52.90
2023-04-18T07:31:11.683Z,54.38
2023-04-18T07:36:17.617Z,42.35
2023-04-18T07:41:22.351Z,40.80
2023-04-18T07:46:26.865Z,38.60
2023-04-18T07:51:32.774Z,32.67
2023-04-18T07:56:37.126Z,35.97
2023-04-18T08:01:41.758Z,29.10
2023-04-18T08:06:47.327Z,14.57
2023-04-18T08:11:51.693Z,22.70
2023-04-18T08:16:56.000Z,16.25
2023-04-18T08:22:11.104Z,14.40
2023-04-18T08:27:15.872Z,19.88
2023-04-18T08:32:20.080Z,17.58
2023-04-18T08:37:28.030Z,20.02
2023-04-18T08:42:33.453Z,19.02
2023-04-18T08:47:37.908Z,14.60
2023-04-18T08:52:48.366Z,12.60
2023-04-18T08:57:55.818Z,16.00
2023-04-18T09:03:00.777Z,12.40
2023-04-18T09:08:24.836Z,10.95
2023-04-18T09:13:40.112Z,10.85
2023-04-18T09:19:13.239Z,14.15
2023-04-18T09:24:24.376Z,9.43
2023-04-18T09:29:46.745Z,10.80
2023-04-18T09:34:51.560Z,13.23
2023-04-18T09:39:57.410Z,8.45
2023-04-18T09:45:07.986Z,9.27
2023-04-18T09:50:12.774Z,9.55
2023-04-18T09:55:20.125Z,11.85
2023-04-18T10:00:26.843Z,11.95
2023-04-18T10:05:33.525Z,6.22
2023-04-18T10:10:39.418Z,6.50
2023-04-18T10:15:46.514Z,7.93
2023-04-18T10:20:50.862Z,63.70
2023-04-18T10:25:56.658Z,8.40
2023-04-18T10:31:05.764Z,8.40
2023-04-18T10:36:19.295Z,7.07
2023-04-18T10:41:26.964Z,6.65
2023-04-18T10:46:32.841Z,6.15
2023-04-18T10:51:37.179Z,10.57
2023-04-18T10:56:54.042Z,9.77
2023-04-18T11:02:00.950Z,6.53
2023-04-18T11:07:06.403Z,11.25
2023-04-18T11:12:12.953Z,6.82
2023-04-18T11:17:19.160Z,9.07
2023-04-18T11:22:23.613Z,7.47
2023-04-18T11:27:31.133Z,9.45
2023-04-18T11:32:36.727Z,6.57
2023-04-18T11:37:42.327Z,6.05
2023-04-18T11:42:48.624Z,5.75
2023-04-18T11:47:58.326Z,6.03
2023-04-18T11:53:02.790Z,6.13
2023-04-18T11:58:08.386Z,5.03
2023-04-18T12:03:17.489Z,7.63
2023-04-18T12:08:22.629Z,5.65
2023-04-18T12:13:33.704Z,5.60
2023-04-18T12:18:39.396Z,8.15
2023-04-18T12:23:46.161Z,5.65
2023-04-18T12:28:53.948Z,6.03
2023-04-18T12:34:00.285Z,5.55
2023-04-18T12:39:04.758Z,5.10
2023-04-18T12:44:10.678Z,7.10
2023-04-18T12:49:14.965Z,9.00
2023-04-18T12:54:20.014Z,4.55
2023-04-18T12:59:25.897Z,4.85
2023-04-18T13:04:30.927Z,5.53
2023-04-18T13:09:35.667Z,5.50
2023-04-18T13:14:41.358Z,5.97
2023-04-18T13:19:46.109Z,6.82
2023-04-18T13:24:50.423Z,14.00
2023-04-18T13:29:57.495Z,21.88
2023-04-18T13:35:03.498Z,9.43
2023-04-18T13:40:09.023Z,12.23
2023-04-18T13:45:14.882Z,27.27
2023-04-18T13:50:19.427Z,15.95
2023-04-18T13:55:25.620Z,15.75
2023-04-18T14:00:31.602Z,7.50
2023-04-18T14:05:36.162Z,8.65
2023-04-18T14:10:40.684Z,5.70
2023-04-18T14:15:46.395Z,8.63
2023-04-18T14:20:50.747Z,8.15
2023-04-18T14:25:55.167Z,8.98
2023-04-18T14:31:03.074Z,6.35
2023-04-18T14:36:08.819Z,6.22
2023-04-18T14:41:13.048Z,7.75
2023-04-18T14:46:19.052Z,11.82
2023-04-18T14:51:24.249Z,7.22
2023-04-18T14:56:28.925Z,7.55
2023-04-18T15:01:34.557Z,8.70
2023-04-18T15:06:39.245Z,6.35
2023-04-18T15:11:43.906Z,10.45
2023-04-18T15:16:52.278Z,8.32
2023-04-18T15:21:56.985Z,7.97
2023-04-18T15:27:01.659Z,10.63
2023-04-18T15:32:07.484Z,7.00
2023-04-18T15:37:11.649Z,9.05
2023-04-18T15:42:15.928Z,9.35
2023-04-18T15:47:21.470Z,8.38
2023-04-18T15:52:26.129Z,51.47
2023-04-18T15:57:31.129Z,14.00
2023-04-18T16:02:37.357Z,7.72
2023-04-18T16:07:42.430Z,13.40
2023-04-18T16:12:47.642Z,9.00
2023-04-18T16:17:53.377Z,8.38
2023-04-18T16:22:57.765Z,11.38
2023-04-18T16:28:01.929Z,8.82
2023-04-18T16:33:07.582Z,88.47
2023-04-18T16:38:12.156Z,83.68
2023-04-18T16:43:16.324Z,31.33
2023-04-18T16:48:21.892Z,22.10
2023-04-18T16:53:26.339Z,16.63
2023-04-18T16:58:30.581Z,16.98
2023-04-18T17:03:36.995Z,12.73
2023-04-18T17:08:41.649Z,20.80
2023-04-18T17:13:50.666Z,14.52
2023-04-18T17:19:01.915Z,18.98
2023-04-18T17:24:07.248Z,28.23
2023-04-18T17:29:11.937Z,99.00
2023-04-18T17:34:17.567Z,42.45
2023-04-18T17:39:22.813Z,135.90
2023-04-18T17:44:26.935Z,248.88
2023-04-18T17:49:35.126Z,270.35
2023-04-18T17:54:39.432Z,184.32
2023-04-18T17:59:43.740Z,121.32
2023-04-18T18:04:49.645Z,67.85
2023-04-18T18:09:53.897Z,143.85
2023-04-18T18:14:58.626Z,262.80
2023-04-18T18:20:04.273Z,98.32
2023-04-18T18:25:09.540Z,44.05
2023-04-18T18:30:14.594Z,56.13
2023-04-18T18:35:20.787Z,92.18
2023-04-18T18:40:25.574Z,56.65
2023-04-18T18:45:30.154Z,30.98
2023-04-18T18:50:36.010Z,41.42
2023-04-18T18:55:40.288Z,21.60
2023-04-18T19:00:44.862Z,35.97
2023-04-18T19:05:50.834Z,37.33
2023-04-18T19:10:55.328Z,20.83
2023-04-18T19:15:59.845Z,28.33
2023-04-18T19:21:06.186Z,28.00
2023-04-18T19:26:10.710Z,22.20
2023-04-18T19:31:15.047Z,27.80
2023-04-18T19:36:22.622Z,28.50
2023-04-18T19:41:27.455Z,24.80
2023-04-18T19:46:32.086Z,28.65
2023-04-18T19:51:38.185Z,28.10
2023-04-18T19:56:42.524Z,33.33
2023-04-18T20:01:46.683Z,27.45
2023-04-18T20:06:53.766Z,28.42
2023-04-18T20:12:00.652Z,36.13
2023-04-18T20:17:05.003Z,32.95
2023-04-18T20:22:10.585Z,34.13
2023-04-18T20:27:14.761Z,34.28
2023-04-18T20:32:19.201Z,106.00
2023-04-18T20:37:25.116Z,45.20
2023-04-18T20:42:29.266Z,41.42
2023-04-18T20:47:34.198Z,40.53
2023-04-18T20:52:42.904Z,61.05
2023-04-18T20:57:47.372Z,41.83
2023-04-18T21:02:51.915Z,73.43
2023-04-18T21:07:59.942Z,84.75
2023-04-18T21:13:04.313Z,46.08
2023-04-18T21:18:08.559Z,63.97
2023-04-18T21:23:14.443Z,148.45
2023-04-18T21:28:20.824Z,90.97
2023-04-18T21:33:26.313Z,99.25
2023-04-18T21:38:32.395Z,99.25
2023-04-18T21:43:36.705Z,69.53
2023-04-18T21:48:41.894Z,83.22
2023-04-18T21:53:47.996Z,70.57
2023-04-18T21:58:52.134Z,64.28
2023-04-18T22:03:56.427Z,92.40
2023-04-18T22:09:02.770Z,78.78
2023-04-18T22:14:06.844Z,76.45
2023-04-18T22:19:11.345Z,36.75
2023-04-18T22:24:18.463Z,46.75
2023-04-18T22:29:23.273Z,69.93
2023-04-18T22:34:27.842Z,63.20
2023-04-18T22:39:33.719Z,42.45
2023-04-18T22:44:38.103Z,60.67
2023-04-18T22:49:42.269Z,58.25
2023-04-18T22:54:48.052Z,44.28
2023-04-18T22:59:52.250Z,52.42
2023-04-18T23:04:59.172Z,45.97
2023-04-18T23:10:05.921Z,38.33
2023-04-18T23:15:11.996Z,49.47
2023-04-18T23:20:16.756Z,58.42
2023-04-18T23:25:22.295Z,54.00
2023-04-18T23:30:27.156Z,59.58
2023-04-18T23:35:31.509Z,45.22
2023-04-18T23:40:37.245Z,49.25
2023-04-18T23:45:41.385Z,46.95
2023-04-18T23:50:47.226Z,40.33
2023-04-18T23:55:54.857Z,113.50
